createdAt,value
2023-05-15T00:00:11.271Z,28.83
2023-05-15T00:02:39.949Z,28.40
2023-05-15T00:05:03.485Z,31.42
2023-05-15T00:07:28.137Z,34.78
2023-05-15T00:09:51.505Z,33.53
2023-05-15T00:12:15.418Z,31.35
2023-05-15T00:14:38.691Z,28.10
2023-05-15T00:17:02.058Z,33.70
2023-05-15T00:19:25.363Z,35.95
2023-05-15T00:21:48.638Z,32.63
2023-05-15T00:24:13.215Z,33.83
2023-05-15T00:26:36.788Z,33.33
2023-05-15T00:29:00.276Z,31.67
2023-05-15T00:31:23.650Z,34.13
2023-05-15T00:33:47.637Z,30.63
2023-05-15T00:36:11.371Z,27.38
2023-05-15T00:38:34.642Z,31.38
2023-05-15T00:41:01.933Z,30.83
2023-05-15T00:43:27.657Z,36.05
2023-05-15T00:45:53.603Z,31.92
2023-05-15T00:48:17.754Z,31.60
2023-05-15T00:50:42.510Z,26.33
2023-05-15T00:53:06.188Z,27.88
2023-05-15T00:55:30.379Z,30.30
2023-05-15T00:57:57.594Z,34.80
2023-05-15T01:00:21.966Z,37.58
2023-05-15T01:02:46.287Z,31.33
2023-05-15T01:05:10.676Z,34.92
2023-05-15T01:07:42.565Z,32.33
2023-05-15T01:10:08.999Z,38.30
2023-05-15T01:12:33.947Z,26.50
2023-05-15T01:14:59.622Z,27.65
2023-05-15T01:17:23.931Z,34.92
2023-05-15T01:19:52.306Z,26.25
2023-05-15T01:22:43.112Z,34.15
2023-05-15T01:26:03.521Z,28.05
2023-05-15T01:28:33.154Z,32.47
2023-05-15T01:30:59.675Z,33.75
2023-05-15T01:33:27.286Z,30.88
2023-05-15T01:36:01.424Z,34.88
2023-05-15T01:38:34.860Z,33.33
2023-05-15T01:41:04.311Z,38.00
2023-05-15T01:43:33.517Z,27.48
2023-05-15T01:45:59.568Z,27.48
2023-05-15T01:48:24.204Z,30.48
2023-05-15T01:50:49.440Z,31.50
2023-05-15T01:53:13.874Z,37.13
2023-05-15T01:55:38.960Z,29.85
2023-05-15T01:58:03.443Z,30.85
2023-05-15T02:00:28.398Z,27.63
2023-05-15T02:02:52.523Z,26.92
2023-05-15T02:05:16.428Z,31.40
2023-05-15T02:07:40.202Z,37.92
2023-05-15T02:10:04.659Z,33.92
2023-05-15T02:12:29.137Z,33.53
2023-05-15T02:14:54.178Z,29.38
2023-05-15T02:17:19.132Z,27.50
2023-05-15T02:19:42.451Z,31.73
2023-05-15T02:22:06.410Z,29.85
2023-05-15T02:24:30.082Z,33.33
2023-05-15T02:27:04.035Z,26.90
2023-05-15T02:29:35.723Z,31.13
2023-05-15T02:32:06.252Z,32.42
2023-05-15T02:34:41.236Z,36.92
2023-05-15T02:37:12.081Z,32.97
2023-05-15T02:39:36.210Z,34.03
2023-05-15T02:42:01.211Z,34.50
2023-05-15T02:44:25.016Z,34.33
2023-05-15T02:46:49.387Z,35.22
2023-05-15T02:49:15.645Z,38.33
2023-05-15T02:51:40.465Z,33.85
2023-05-15T02:54:04.067Z,31.83
2023-05-15T02:56:27.398Z,32.83
2023-05-15T02:58:50.732Z,41.30
2023-05-15T03:01:14.008Z,40.30
2023-05-15T03:03:37.276Z,43.55
2023-05-15T03:06:01.460Z,36.92
2023-05-15T03:08:26.137Z,43.50
2023-05-15T03:10:49.394Z,39.38
2023-05-15T03:13:12.714Z,34.53
2023-05-15T03:15:36.002Z,44.05
2023-05-15T03:17:59.578Z,38.75
2023-05-15T03:20:23.003Z,45.50
2023-05-15T03:22:46.261Z,43.25
2023-05-15T03:25:12.613Z,44.28
2023-05-15T03:27:35.990Z,51.58
2023-05-15T03:29:59.461Z,37.17
2023-05-15T03:32:22.779Z,39.13
2023-05-15T03:34:46.238Z,41.08
2023-05-15T03:37:09.519Z,42.67
2023-05-15T03:39:32.997Z,43.05
2023-05-15T03:41:58.020Z,35.92
2023-05-15T03:44:21.302Z,40.05
2023-05-15T03:46:44.590Z,38.97
2023-05-15T03:49:07.919Z,40.42
2023-05-15T03:51:31.238Z,50.70
2023-05-15T03:53:54.630Z,40.65
2023-05-15T03:56:19.555Z,40.03
2023-05-15T03:58:44.907Z,40.15
2023-05-15T04:01:08.249Z,42.75
2023-05-15T04:03:31.614Z,37.30
2023-05-15T04:05:54.833Z,37.92
2023-05-15T04:08:18.191Z,42.78
2023-05-15T04:10:41.385Z,38.67
2023-05-15T04:13:04.705Z,31.98
2023-05-15T04:15:29.650Z,32.70
2023-05-15T04:17:54.874Z,36.25
2023-05-15T04:20:22.492Z,37.63
2023-05-15T04:22:46.577Z,38.25
2023-05-15T04:25:11.792Z,39.47
2023-05-15T04:27:35.436Z,37.20
2023-05-15T04:29:58.743Z,37.95
2023-05-15T04:34:46.616Z,43.50
2023-05-15T04:37:10.077Z,33.38
2023-05-15T04:39:33.295Z,35.92
2023-05-15T04:41:56.533Z,39.72
2023-05-15T04:44:20.057Z,36.20
2023-05-15T04:46:43.398Z,37.45
2023-05-15T04:49:08.091Z,43.03
2023-05-15T04:51:31.306Z,41.63
2023-05-15T04:53:54.639Z,39.75
2023-05-15T04:56:19.259Z,38.67
2023-05-15T04:58:43.524Z,41.47
2023-05-15T05:01:06.871Z,39.63
2023-05-15T05:03:30.350Z,41.63
2023-05-15T05:05:55.292Z,41.03
2023-05-15T05:08:18.790Z,36.63
2023-05-15T05:10:42.077Z,34.72
2023-05-15T05:13:05.433Z,41.90
2023-05-15T05:15:28.793Z,37.67
2023-05-15T05:17:52.170Z,41.60
2023-05-15T05:20:16.053Z,37.08
2023-05-15T05:22:42.342Z,38.03
2023-05-15T05:25:08.264Z,37.00
2023-05-15T05:27:31.566Z,39.67
2023-05-15T05:29:55.014Z,39.15
2023-05-15T05:32:18.389Z,41.42
2023-05-15T05:34:41.747Z,40.67
2023-05-15T05:37:05.650Z,41.92
2023-05-15T05:39:30.330Z,39.45
2023-05-15T05:41:53.653Z,40.47
2023-05-15T05:44:16.950Z,40.10
2023-05-15T05:46:40.281Z,38.63
2023-05-15T05:49:03.601Z,40.15
2023-05-15T05:51:27.037Z,43.58
2023-05-15T05:53:50.275Z,40.72
2023-05-15T05:56:15.127Z,36.67
2023-05-15T05:58:38.493Z,39.53
2023-05-15T06:01:02.600Z,41.10
2023-05-15T06:03:26.121Z,39.35
2023-05-15T06:05:49.729Z,38.92
2023-05-15T06:08:13.024Z,44.50
2023-05-15T06:10:36.423Z,42.70
2023-05-15T06:13:01.269Z,36.33
2023-05-15T06:15:24.637Z,38.67
2023-05-15T06:17:48.215Z,39.42
2023-05-15T06:20:12.232Z,36.15
2023-05-15T06:22:35.863Z,38.10
2023-05-15T06:24:59.222Z,37.80
2023-05-15T06:27:22.471Z,35.92
2023-05-15T06:29:47.132Z,36.33
2023-05-15T06:32:10.807Z,36.58
2023-05-15T06:34:34.165Z,36.67
2023-05-15T06:36:57.448Z,38.95
2023-05-15T06:39:20.720Z,35.63
2023-05-15T06:41:44.000Z,34.13
2023-05-15T06:44:09.233Z,33.88
2023-05-15T06:46:33.901Z,38.00
2023-05-15T06:48:57.850Z,35.35
2023-05-15T06:51:21.277Z,32.78
2023-05-15T06:53:44.635Z,35.72
2023-05-15T06:56:08.614Z,35.63
2023-05-15T06:58:31.910Z,35.53
2023-05-15T07:00:56.481Z,31.13
2023-05-15T07:03:21.647Z,33.38
2023-05-15T07:05:46.457Z,34.75
2023-05-15T07:08:09.765Z,30.45
2023-05-15T07:10:33.314Z,33.80
2023-05-15T07:12:56.643Z,31.15
2023-05-15T07:15:20.114Z,32.65
2023-05-15T07:17:43.797Z,30.05
2023-05-15T07:20:10.277Z,32.22
2023-05-15T07:22:38.771Z,29.63
2023-05-15T07:25:09.438Z,32.28
2023-05-15T07:27:33.022Z,30.95
2023-05-15T07:29:56.387Z,29.90
2023-05-15T07:32:19.872Z,28.15
2023-05-15T07:34:43.426Z,29.60
2023-05-15T07:37:08.172Z,28.27
2023-05-15T07:39:31.780Z,31.95
2023-05-15T07:41:55.199Z,27.38
2023-05-15T07:44:18.487Z,30.02
2023-05-15T07:46:41.901Z,28.58
2023-05-15T07:49:06.213Z,29.52
2023-05-15T07:51:29.601Z,29.45
2023-05-15T07:53:54.285Z,30.30
2023-05-15T07:56:17.664Z,32.10
2023-05-15T07:58:40.992Z,28.48
2023-05-15T08:01:04.605Z,28.00
2023-05-15T08:03:27.946Z,29.20
2023-05-15T08:05:51.904Z,28.50
2023-05-15T08:08:17.032Z,28.88
2023-05-15T08:10:41.681Z,27.60
2023-05-15T08:13:04.917Z,30.73
2023-05-15T08:15:29.240Z,29.45
2023-05-15T08:17:52.697Z,30.23
2023-05-15T08:20:16.053Z,31.52
2023-05-15T08:22:39.394Z,28.70
2023-05-15T08:25:03.918Z,25.33
2023-05-15T08:27:28.673Z,25.08
2023-05-15T08:29:52.582Z,29.40
2023-05-15T08:32:15.870Z,35.38
2023-05-15T08:34:39.669Z,36.17
2023-05-15T08:37:03.665Z,31.63
2023-05-15T08:39:26.981Z,28.33
2023-05-15T08:41:59.956Z,22.23
2023-05-15T08:44:25.600Z,21.83
2023-05-15T08:46:50.298Z,27.35
2023-05-15T08:49:26.917Z,24.05
2023-05-15T08:51:50.602Z,27.42
2023-05-15T08:54:14.428Z,25.65
2023-05-15T08:56:37.945Z,21.73
2023-05-15T08:59:01.472Z,21.95
2023-05-15T09:01:26.719Z,22.20
2023-05-15T09:03:50.236Z,20.80
2023-05-15T09:06:15.089Z,19.00
2023-05-15T09:08:39.436Z,22.30
2023-05-15T09:11:05.602Z,23.08
2023-05-15T09:13:28.943Z,19.52
2023-05-15T09:15:52.450Z,17.45
2023-05-15T09:18:18.139Z,23.65
2023-05-15T09:20:41.466Z,20.70
2023-05-15T09:23:07.139Z,23.17
2023-05-15T09:25:39.490Z,23.50
2023-05-15T09:28:03.225Z,22.80
2023-05-15T09:30:28.257Z,23.50
2023-05-15T09:32:52.305Z,27.17
2023-05-15T09:35:34.820Z,28.05
2023-05-15T09:38:02.236Z,25.23
2023-05-15T09:40:30.007Z,30.13
2023-05-15T09:42:53.831Z,29.67
2023-05-15T09:45:19.167Z,28.48
2023-05-15T09:47:47.087Z,22.13
2023-05-15T09:50:11.798Z,19.42
2023-05-15T09:52:37.340Z,22.35
2023-05-15T09:55:05.288Z,28.17
2023-05-15T09:57:28.655Z,22.65
2023-05-15T09:59:52.127Z,23.65
2023-05-15T10:02:24.048Z,21.50
2023-05-15T10:04:47.530Z,24.30
2023-05-15T10:07:10.906Z,21.73
2023-05-15T10:09:35.581Z,21.92
2023-05-15T10:11:59.610Z,19.20
2023-05-15T10:14:24.524Z,21.80
2023-05-15T10:16:47.897Z,20.00
2023-05-15T10:19:13.525Z,22.02
2023-05-15T10:21:39.628Z,25.98
2023-05-15T10:24:04.681Z,25.25
2023-05-15T10:26:37.907Z,22.40
2023-05-15T10:29:02.367Z,20.95
2023-05-15T10:31:26.586Z,22.63
2023-05-15T10:33:51.486Z,19.38
2023-05-15T10:36:16.367Z,18.98
2023-05-15T10:38:40.883Z,21.85
2023-05-15T10:41:16.468Z,21.83
2023-05-15T10:43:43.554Z,22.98
2023-05-15T10:46:07.370Z,19.33
2023-05-15T10:48:31.965Z,15.52
2023-05-15T10:50:55.282Z,20.20
2023-05-15T10:53:18.696Z,22.40
2023-05-15T10:55:42.759Z,19.05
2023-05-15T10:58:10.818Z,17.73
2023-05-15T11:00:36.111Z,16.30
2023-05-15T11:03:01.002Z,21.85
2023-05-15T11:05:25.348Z,16.00
2023-05-15T11:08:27.386Z,16.75
2023-05-15T11:10:50.847Z,17.38
2023-05-15T11:13:14.290Z,20.65
2023-05-15T11:15:46.394Z,15.35
2023-05-15T11:18:09.927Z,20.13
2023-05-15T11:20:40.689Z,15.77
2023-05-15T11:23:03.955Z,17.52
2023-05-15T11:25:32.245Z,22.00
2023-05-15T11:27:56.975Z,22.83
2023-05-15T11:30:22.973Z,18.25
2023-05-15T11:33:03.790Z,15.43
2023-05-15T11:35:30.589Z,16.55
2023-05-15T11:37:56.265Z,16.98
2023-05-15T11:40:25.613Z,15.88
2023-05-15T11:43:02.147Z,16.50
2023-05-15T11:45:25.770Z,11.80
2023-05-15T11:47:49.170Z,13.25
2023-05-15T11:50:14.676Z,14.82
2023-05-15T11:52:38.295Z,15.30
2023-05-15T11:55:02.121Z,12.23
2023-05-15T11:57:25.643Z,13.60
2023-05-15T11:59:48.948Z,13.75
2023-05-15T12:02:12.406Z,14.80
2023-05-15T12:04:35.973Z,10.93
2023-05-15T12:07:03.283Z,14.05
2023-05-15T12:09:27.727Z,14.60
2023-05-15T12:11:52.855Z,21.85
2023-05-15T12:14:16.282Z,13.25
2023-05-15T12:16:39.684Z,15.82
2023-05-15T12:19:03.055Z,18.17
2023-05-15T12:21:28.003Z,15.07
2023-05-15T12:24:06.497Z,14.32
2023-05-15T12:26:32.288Z,11.40
2023-05-15T12:28:56.728Z,14.27
2023-05-15T12:31:20.524Z,15.40
2023-05-15T12:33:44.136Z,13.35
2023-05-15T12:36:08.982Z,18.33
2023-05-15T12:38:34.195Z,14.20
2023-05-15T12:40:59.022Z,11.98
2023-05-15T12:43:25.903Z,15.65
2023-05-15T12:45:53.993Z,14.73
2023-05-15T12:48:17.357Z,14.65
2023-05-15T12:50:41.180Z,16.15
2023-05-15T12:53:06.440Z,20.60
2023-05-15T12:55:32.464Z,15.55
2023-05-15T12:57:58.669Z,17.65
2023-05-15T13:00:23.523Z,15.52
2023-05-15T13:02:47.313Z,18.15
2023-05-15T13:05:11.516Z,24.90
2023-05-15T13:07:35.500Z,22.30
2023-05-15T13:10:07.903Z,25.77
2023-05-15T13:12:38.280Z,23.45
2023-05-15T13:15:03.114Z,17.85
2023-05-15T13:17:26.479Z,19.23
2023-05-15T13:19:49.777Z,18.95
2023-05-15T13:22:13.105Z,26.60
2023-05-15T13:24:36.462Z,20.90
2023-05-15T13:26:59.737Z,19.38
2023-05-15T13:29:23.040Z,17.08
2023-05-15T13:31:48.061Z,18.60
2023-05-15T13:34:11.468Z,22.58
2023-05-15T13:36:35.145Z,18.80
2023-05-15T13:38:58.438Z,17.33
2023-05-15T13:41:22.575Z,14.23
2023-05-15T13:43:47.829Z,14.43
2023-05-15T13:46:11.144Z,15.32
2023-05-15T13:48:35.796Z,17.10
2023-05-15T13:50:59.222Z,15.48
2023-05-15T13:53:22.518Z,21.90
2023-05-15T13:55:46.211Z,21.90
2023-05-15T13:58:09.502Z,20.38
2023-05-15T14:00:33.046Z,20.02
2023-05-15T14:02:56.473Z,22.52
2023-05-15T14:05:21.654Z,21.08
2023-05-15T14:07:45.024Z,21.20
2023-05-15T14:10:09.862Z,18.42
2023-05-15T14:12:33.719Z,19.02
2023-05-15T14:14:57.018Z,18.60
2023-05-15T14:17:20.329Z,18.23
2023-05-15T14:19:44.214Z,17.88
2023-05-15T14:22:08.957Z,21.67
2023-05-15T14:24:32.364Z,20.98
2023-05-15T14:26:55.625Z,22.08
2023-05-15T14:29:18.912Z,20.92
2023-05-15T14:31:42.752Z,21.05
2023-05-15T14:34:06.600Z,19.88
2023-05-15T14:36:30.284Z,22.08
2023-05-15T14:38:55.231Z,22.33
2023-05-15T14:41:18.950Z,19.02
2023-05-15T14:43:42.388Z,20.75
2023-05-15T14:46:07.599Z,20.50
2023-05-15T14:48:33.863Z,20.05
2023-05-15T14:50:57.281Z,19.75
2023-05-15T14:53:20.587Z,21.73
2023-05-15T14:55:45.321Z,27.85
2023-05-15T14:58:11.315Z,26.52
2023-05-15T15:00:34.691Z,23.40
2023-05-15T15:02:59.385Z,26.52
2023-05-15T15:05:22.912Z,26.73
2023-05-15T15:08:03.885Z,27.52
2023-05-15T15:10:27.653Z,31.90
2023-05-15T15:12:53.583Z,27.70
2023-05-15T15:15:16.966Z,29.00
2023-05-15T15:17:40.225Z,28.92
2023-05-15T15:20:05.408Z,35.22
2023-05-15T15:22:28.684Z,32.33
2023-05-15T15:24:51.980Z,32.90
2023-05-15T15:27:15.142Z,32.30
2023-05-15T15:29:39.684Z,33.78
2023-05-15T15:32:03.837Z,30.55
2023-05-15T15:34:27.284Z,31.60
2023-05-15T15:36:50.502Z,31.77
2023-05-15T15:39:13.777Z,28.63
2023-05-15T15:41:39.498Z,26.60
2023-05-15T15:44:02.721Z,27.00
2023-05-15T15:46:27.570Z,26.35
2023-05-15T15:48:50.987Z,24.02
2023-05-15T15:51:14.267Z,24.40
2023-05-15T15:53:37.511Z,29.48
2023-05-15T15:56:01.360Z,25.02
2023-05-15T15:58:24.629Z,23.98
2023-05-15T16:00:47.889Z,22.70
2023-05-15T16:03:12.606Z,25.90
2023-05-15T16:05:35.886Z,28.23
2023-05-15T16:07:59.240Z,31.23
2023-05-15T16:10:22.472Z,29.33
2023-05-15T16:12:45.744Z,31.08
2023-05-15T16:15:21.780Z,29.77
2023-05-15T16:17:46.314Z,28.20
2023-05-15T16:20:12.035Z,33.08
2023-05-15T16:22:35.503Z,30.25
2023-05-15T16:24:58.781Z,29.23
2023-05-15T16:27:22.025Z,27.75
2023-05-15T16:29:45.764Z,30.05
2023-05-15T16:32:09.997Z,31.08
2023-05-15T16:34:34.042Z,26.17
2023-05-15T16:36:58.669Z,31.13
2023-05-15T16:39:22.291Z,29.73
2023-05-15T16:41:45.604Z,28.02
2023-05-15T16:44:11.018Z,31.80
2023-05-15T16:46:34.561Z,30.63
2023-05-15T16:48:57.841Z,29.20
2023-05-15T16:51:21.554Z,30.25
2023-05-15T16:53:46.487Z,34.05
2023-05-15T16:56:12.196Z,31.75
2023-05-15T16:58:36.982Z,31.38
2023-05-15T17:01:00.274Z,30.63
2023-05-15T17:03:23.929Z,28.23
2023-05-15T17:05:48.587Z,29.65
2023-05-15T17:08:11.897Z,29.88
2023-05-15T17:10:36.596Z,25.90
2023-05-15T17:12:59.829Z,26.00
2023-05-15T17:15:23.217Z,25.10
2023-05-15T17:17:46.540Z,24.40
2023-05-15T17:20:11.588Z,22.88
2023-05-15T17:22:34.902Z,23.02
2023-05-15T17:24:58.284Z,19.55
2023-05-15T17:27:22.959Z,17.95
2023-05-15T17:29:46.705Z,16.58
2023-05-15T17:32:10.084Z,17.05
2023-05-15T17:34:33.452Z,17.38
2023-05-15T17:36:56.869Z,18.30
2023-05-15T17:39:20.424Z,16.65
2023-05-15T17:41:43.735Z,18.92
2023-05-15T17:44:09.062Z,16.65
2023-05-15T17:46:32.503Z,15.23
2023-05-15T17:48:55.862Z,15.43
2023-05-15T17:51:19.194Z,13.95
2023-05-15T17:53:42.576Z,15.73
2023-05-15T17:56:06.168Z,14.77
2023-05-15T17:58:29.321Z,14.27
2023-05-15T18:00:54.104Z,12.75
2023-05-15T18:03:17.480Z,16.20
2023-05-15T18:05:40.820Z,20.58
2023-05-15T18:08:04.445Z,15.98
2023-05-15T18:10:27.673Z,14.95
2023-05-15T18:12:50.868Z,17.15
2023-05-15T18:15:14.137Z,18.58
2023-05-15T18:17:38.752Z,15.20
2023-05-15T18:20:01.969Z,16.27
2023-05-15T18:22:25.777Z,15.60
2023-05-15T18:24:49.046Z,17.17
2023-05-15T18:27:12.745Z,19.02
2023-05-15T18:29:35.989Z,17.40
2023-05-15T18:31:59.309Z,14.68
2023-05-15T18:34:24.078Z,13.35
2023-05-15T18:36:48.828Z,11.35
2023-05-15T18:39:12.322Z,17.27
2023-05-15T18:41:35.726Z,11.45
2023-05-15T18:43:58.987Z,12.13
2023-05-15T18:46:22.235Z,12.38
2023-05-15T18:48:45.776Z,9.77
2023-05-15T18:51:11.404Z,9.32
2023-05-15T18:53:34.734Z,8.35
2023-05-15T18:55:58.216Z,9.68
2023-05-15T18:58:21.958Z,12.15
2023-05-15T19:00:45.291Z,10.98
2023-05-15T19:03:10.363Z,8.52
2023-05-15T19:05:34.318Z,11.52
2023-05-15T19:07:59.127Z,8.23
2023-05-15T19:10:22.427Z,9.35
2023-05-15T19:12:45.806Z,8.55
2023-05-15T19:15:12.417Z,7.65
2023-05-15T19:17:38.059Z,6.65
2023-05-15T19:20:01.480Z,8.18
2023-05-15T19:22:24.751Z,6.75
2023-05-15T19:24:49.478Z,6.88
2023-05-15T19:27:13.047Z,7.25
2023-05-15T19:29:36.446Z,6.82
2023-05-15T19:31:59.774Z,7.50
2023-05-15T19:34:23.269Z,6.72
2023-05-15T19:36:47.003Z,7.38
2023-05-15T19:39:10.316Z,9.55
2023-05-15T19:41:35.095Z,8.65
2023-05-15T19:43:58.462Z,9.18
2023-05-15T19:46:21.982Z,7.47
2023-05-15T19:48:45.689Z,9.10
2023-05-15T19:51:09.016Z,10.32
2023-05-15T19:53:32.417Z,9.63
2023-05-15T19:55:55.737Z,9.88
2023-05-15T19:58:22.235Z,9.88
2023-05-15T20:00:46.194Z,12.50
2023-05-15T20:03:09.606Z,9.65
2023-05-15T20:05:33.209Z,13.05
2023-05-15T20:07:56.607Z,11.20
2023-05-15T20:10:20.176Z,11.70
2023-05-15T20:12:43.427Z,10.85
2023-05-15T20:15:10.034Z,8.75
2023-05-15T20:17:33.380Z,8.10
2023-05-15T20:19:59.034Z,8.05
2023-05-15T20:22:22.332Z,11.48
2023-05-15T20:24:45.955Z,15.10
2023-05-15T20:27:09.482Z,9.98
2023-05-15T20:29:32.775Z,12.13
2023-05-15T20:31:57.552Z,10.48
2023-05-15T20:34:21.805Z,11.15
2023-05-15T20:36:45.076Z,11.73
2023-05-15T20:39:08.566Z,10.38
2023-05-15T20:41:31.869Z,9.00
2023-05-15T20:43:55.081Z,11.63
2023-05-15T20:46:18.500Z,12.10
2023-05-15T20:48:43.152Z,10.95
2023-05-15T20:51:06.557Z,8.77
2023-05-15T20:53:29.855Z,13.93
2023-05-15T20:55:53.072Z,13.23
2023-05-15T20:58:16.313Z,13.70
2023-05-15T21:00:39.611Z,14.57
2023-05-15T21:03:03.080Z,9.98
2023-05-15T21:05:27.761Z,9.95
2023-05-15T21:07:51.047Z,16.80
2023-05-15T21:10:14.361Z,14.40
2023-05-15T21:12:37.788Z,15.32
2023-05-15T21:15:01.276Z,13.98
2023-05-15T21:17:24.623Z,14.82
2023-05-15T21:19:48.748Z,12.07
2023-05-15T21:22:13.711Z,19.45
2023-05-15T21:24:37.216Z,17.55
2023-05-15T21:27:00.481Z,11.63
2023-05-15T21:29:23.756Z,15.07
2023-05-15T21:31:47.023Z,15.05
2023-05-15T21:34:10.303Z,13.55
2023-05-15T21:36:34.268Z,11.10
2023-05-15T21:38:58.967Z,12.43
2023-05-15T21:41:22.151Z,11.05
2023-05-15T21:43:45.364Z,12.13
2023-05-15T21:46:08.643Z,10.65
2023-05-15T21:48:32.217Z,13.77
2023-05-15T21:50:57.652Z,13.82
2023-05-15T21:53:20.823Z,10.98
2023-05-15T21:55:45.341Z,9.32
2023-05-15T21:58:08.545Z,14.02
2023-05-15T22:00:31.807Z,13.93
2023-05-15T22:02:55.246Z,10.95
2023-05-15T22:05:18.935Z,11.57
2023-05-15T22:07:42.234Z,13.38
2023-05-15T22:10:07.475Z,15.10
2023-05-15T22:12:33.189Z,11.18
2023-05-15T22:14:59.008Z,12.77
2023-05-15T22:17:27.110Z,11.52
2023-05-15T22:19:51.892Z,8.30
2023-05-15T22:22:15.171Z,11.38
2023-05-15T22:24:38.420Z,10.70
2023-05-15T22:27:01.764Z,7.70
2023-05-15T22:29:26.964Z,10.13
2023-05-15T22:31:50.476Z,13.32
2023-05-15T22:34:14.011Z,9.70
2023-05-15T22:36:37.273Z,12.38
2023-05-15T22:39:00.639Z,13.43
2023-05-15T22:41:23.908Z,13.98
2023-05-15T22:43:47.390Z,13.07
2023-05-15T22:46:12.033Z,12.48
2023-05-15T22:48:35.501Z,12.38
2023-05-15T22:50:58.764Z,8.88
2023-05-15T22:53:22.094Z,13.73
2023-05-15T22:55:45.932Z,12.02
2023-05-15T22:58:09.831Z,14.68
2023-05-15T23:00:33.660Z,12.45
2023-05-15T23:02:58.348Z,14.50
2023-05-15T23:05:22.116Z,10.57
2023-05-15T23:07:45.323Z,14.82
2023-05-15T23:10:10.126Z,16.73
2023-05-15T23:12:33.342Z,13.32
2023-05-15T23:14:56.597Z,17.20
2023-05-15T23:17:19.840Z,12.10
2023-05-15T23:19:44.484Z,10.75
2023-05-15T23:22:07.737Z,16.15
2023-05-15T23:24:31.136Z,9.40
2023-05-15T23:26:54.377Z,9.73
2023-05-15T23:29:17.855Z,8.88
2023-05-15T23:31:42.897Z,9.68
2023-05-15T23:34:06.554Z,7.10
2023-05-15T23:36:31.257Z,9.32
2023-05-15T23:38:54.534Z,6.95
2023-05-15T23:41:17.758Z,9.32
2023-05-15T23:43:41.040Z,7.95
2023-05-15T23:46:05.184Z,8.77
2023-05-15T23:48:28.543Z,6.70
2023-05-15T23:50:52.365Z,9.10
2023-05-15T23:53:17.010Z,6.30
2023-05-15T23:55:40.345Z,9.05
2023-05-15T23:58:03.797Z,8.30
